Time;durP1;ratioP1;P1;durP2;ratioP2;P2;SDS_P1;SDS_P2;PMS_P1;PMS_P2;Temp;Humidity;BMP_temperature;BMP_pressure;BME280_temperature;BME280_humidity;BME280_pressure;Samples;Min_cycle;Max_cycle;Signal;HPM_P1;HPM_P2
2022/07/10 00:01:25;;;;;;;6.88;1.15;;;;;;;;;;4993111;28;20714;-67
2022/07/10 00:03:50;;;;;;;8.27;1.42;;;;;;;;;;4993019;28;20022;-70
2022/07/10 00:06:16;;;;;;;12.05;1.73;;;;;;;;;;4992182;28;20024;-67
2022/07/10 00:08:42;;;;;;;7.85;1.30;;;;;;;;;;4993701;28;20088;-70
2022/07/10 00:11:08;;;;;;;5.90;1.30;;;;;;;;;;4992618;28;20034;-70
2022/07/10 00:13:33;;;;;;;7.18;1.35;;;;;;;;;;4992033;28;20023;-69
2022/07/10 00:15:58;;;;;;;4.80;1.23;;;;;;;;;;4994153;28;20069;-69
2022/07/10 00:18:23;;;;;;;4.63;1.37;;;;;;;;;;4990086;28;20053;-70
2022/07/10 00:20:49;;;;;;;4.80;2.00;;;;;;;;;;4993358;28;20301;-70
2022/07/10 00:23:14;;;;;;;5.77;1.20;;;;;;;;;;4990852;28;20762;-70
2022/07/10 00:25:39;;;;;;;6.10;1.73;;;;;;;;;;4992948;28;20333;-70
2022/07/10 00:28:04;;;;;;;7.97;1.93;;;;;;;;;;4991507;28;20697;-69
2022/07/10 00:30:29;;;;;;;9.98;1.58;;;;;;;;;;4990763;28;20324;-70
2022/07/10 00:32:55;;;;;;;6.90;1.30;;;;;;;;;;4991297;28;20053;-69
2022/07/10 00:35:20;;;;;;;4.68;1.25;;;;;;;;;;4993594;28;20274;-70
2022/07/10 00:37:45;;;;;;;7.82;1.40;;;;;;;;;;4990985;28;20480;-70
2022/07/10 00:40:12;;;;;;;11.82;1.80;;;;;;;;;;4991055;28;20678;-69
2022/07/10 00:42:37;;;;;;;11.20;1.75;;;;;;;;;;4991248;28;20025;-70
2022/07/10 00:45:02;;;;;;;4.35;1.08;;;;;;;;;;4992451;28;20395;-69
2022/07/10 00:47:27;;;;;;;11.50;1.42;;;;;;;;;;4991626;28;20471;-69
2022/07/10 00:49:52;;;;;;;9.20;1.77;;;;;;;;;;4993228;28;20064;-69
2022/07/10 00:52:18;;;;;;;7.97;1.20;;;;;;;;;;4990973;28;20117;-69
2022/07/10 00:54:45;;;;;;;6.57;0.90;;;;;;;;;;4991915;28;20311;-70
2022/07/10 00:57:11;;;;;;;5.25;1.25;;;;;;;;;;4989414;28;20025;-67
2022/07/10 00:59:36;;;;;;;7.30;1.05;;;;;;;;;;4990240;28;20029;-67
2022/07/10 01:02:02;;;;;;;6.03;1.20;;;;;;;;;;4990930;28;20022;-67
2022/07/10 01:04:28;;;;;;;5.13;1.90;;;;;;;;;;4992036;28;20415;-67
2022/07/10 01:06:53;;;;;;;7.55;1.40;;;;;;;;;;4991798;28;20198;-69
2022/07/10 01:09:18;;;;;;;12.70;1.17;;;;;;;;;;4993003;28;20029;-70
2022/07/10 01:11:43;;;;;;;6.75;1.25;;;;;;;;;;4990368;28;20638;-70
2022/07/10 01:14:10;;;;;;;4.28;1.38;;;;;;;;;;4991474;28;20050;-69
2022/07/10 01:16:35;;;;;;;11.25;2.50;;;;;;;;;;4991379;28;20014;-69
2022/07/10 01:19:00;;;;;;;5.27;2.23;;;;;;;;;;4991370;28;20033;-69
2022/07/10 01:21:32;;;;;;;8.52;1.48;;;;;;;;;;4992125;28;20265;-69
2022/07/10 01:23:58;;;;;;;5.70;1.40;;;;;;;;;;4987828;28;20022;-67
2022/07/10 01:26:23;;;;;;;6.00;1.25;;;;;;;;;;4989570;28;20023;-67
2022/07/10 01:28:52;;;;;;;9.55;1.33;;;;;;;;;;4990298;28;20483;-67
2022/07/10 01:31:18;;;;;;;5.65;0.93;;;;;;;;;;4992022;28;20513;-67
2022/07/10 01:33:44;;;;;;;11.32;1.77;;;;;;;;;;4992447;28;20030;-70
2022/07/10 01:36:09;;;;;;;4.80;1.55;;;;;;;;;;4991380;28;20728;-69
2022/07/10 01:38:35;;;;;;;13.02;1.20;;;;;;;;;;4990262;28;20050;-69
2022/07/10 01:41:00;;;;;;;9.57;1.83;;;;;;;;;;4990341;28;20467;-70
2022/07/10 01:43:25;;;;;;;8.00;1.50;;;;;;;;;;4989528;28;20281;-70
2022/07/10 01:45:51;;;;;;;4.70;1.13;;;;;;;;;;4990491;28;20269;-69
2022/07/10 01:48:16;;;;;;;6.70;1.20;;;;;;;;;;4990858;28;20303;-69
2022/07/10 01:50:41;;;;;;;9.10;1.60;;;;;;;;;;4991524;28;20390;-70
2022/07/10 01:53:07;;;;;;;13.70;1.40;;;;;;;;;;4990057;28;20026;-70
2022/07/10 01:55:32;;;;;;;8.63;1.27;;;;;;;;;;4990447;28;20630;-70
2022/07/10 01:57:57;;;;;;;5.45;1.17;;;;;;;;;;5017247;22;20145;-68
2022/07/10 02:00:23;;;;;;;3.57;0.90;;;;;;;;;;5010124;28;20029;-69
2022/07/10 02:04:40;;;;;;;9.00;1.67;;;;;;;;;;5011776;28;21730;-66
2022/07/10 02:05:34;;;;;;;5.97;1.35;;;;;;;;;;5006799;28;20026;-67
2022/07/10 02:07:59;;;;;;;8.75;1.75;;;;;;;;;;5011059;28;20028;-67
2022/07/10 02:10:24;;;;;;;11.68;2.10;;;;;;;;;;5011664;28;20018;-67
2022/07/10 02:12:49;;;;;;;8.82;1.35;;;;;;;;;;5008868;28;20030;-67
2022/07/10 02:15:15;;;;;;;8.57;1.30;;;;;;;;;;5010565;28;20024;-67
2022/07/10 02:17:40;;;;;;;4.07;1.20;;;;;;;;;;5009988;28;20028;-68
2022/07/10 02:20:05;;;;;;;7.23;1.47;;;;;;;;;;5009063;28;20657;-67
2022/07/10 02:22:30;;;;;;;7.28;1.50;;;;;;;;;;5010479;28;20359;-67
2022/07/10 02:24:56;;;;;;;8.87;1.27;;;;;;;;;;5011040;28;20049;-67
2022/07/10 02:27:22;;;;;;;7.10;1.33;;;;;;;;;;5010144;28;20684;-66
2022/07/10 02:29:47;;;;;;;5.60;1.30;;;;;;;;;;5008780;28;21072;-66
2022/07/10 02:32:12;;;;;;;7.63;2.15;;;;;;;;;;5009126;28;20028;-68
2022/07/10 02:34:37;;;;;;;8.53;1.00;;;;;;;;;;5009627;28;20021;-66
2022/07/10 02:37:03;;;;;;;9.83;1.37;;;;;;;;;;5009342;28;20265;-68
2022/07/10 02:39:28;;;;;;;10.13;1.50;;;;;;;;;;5010371;28;20355;-68
2022/07/10 02:41:53;;;;;;;10.03;1.33;;;;;;;;;;5008318;28;20101;-67
2022/07/10 02:44:19;;;;;;;4.05;1.20;;;;;;;;;;5011400;28;20265;-67
2022/07/10 02:46:44;;;;;;;9.83;1.27;;;;;;;;;;5009776;28;20345;-67
2022/07/10 02:49:09;;;;;;;12.43;1.47;;;;;;;;;;5010153;28;20280;-67
2022/07/10 02:51:34;;;;;;;11.75;1.48;;;;;;;;;;5009456;28;20378;-67
2022/07/10 02:53:59;;;;;;;14.07;1.50;;;;;;;;;;5009603;28;20017;-67
2022/07/10 02:56:25;;;;;;;5.63;1.30;;;;;;;;;;5009392;28;20828;-68
2022/07/10 02:58:50;;;;;;;14.05;1.30;;;;;;;;;;5010532;28;20273;-68
2022/07/10 03:01:15;;;;;;;9.43;1.35;;;;;;;;;;5009851;28;20026;-67
2022/07/10 03:03:41;;;;;;;9.47;1.20;;;;;;;;;;5009621;28;20018;-67
2022/07/10 03:06:06;;;;;;;5.43;1.20;;;;;;;;;;5009444;28;20301;-67
2022/07/10 03:08:31;;;;;;;8.18;1.50;;;;;;;;;;5009285;28;20097;-67
2022/07/10 03:10:56;;;;;;;5.40;1.10;;;;;;;;;;5010071;28;20021;-67
2022/07/10 03:13:21;;;;;;;9.17;1.53;;;;;;;;;;4990105;28;20276;-67
2022/07/10 03:15:46;;;;;;;7.87;1.50;;;;;;;;;;5010315;28;20320;-67
2022/07/10 03:18:12;;;;;;;9.03;2.60;;;;;;;;;;5009577;28;20360;-67
2022/07/10 03:20:37;;;;;;;6.97;1.50;;;;;;;;;;5008638;28;20268;-67
2022/07/10 03:23:02;;;;;;;4.63;1.42;;;;;;;;;;5008402;28;20319;-67
2022/07/10 03:25:27;;;;;;;4.50;1.20;;;;;;;;;;5010313;28;20691;-67
2022/07/10 03:27:52;;;;;;;4.45;1.23;;;;;;;;;;5007755;28;20273;-67
2022/07/10 03:30:19;;;;;;;6.97;1.30;;;;;;;;;;5010153;28;20084;-67
2022/07/10 03:32:45;;;;;;;8.70;1.38;;;;;;;;;;5009402;28;20282;-67
2022/07/10 03:35:10;;;;;;;4.72;1.00;;;;;;;;;;5008650;28;20017;-67
2022/07/10 03:37:35;;;;;;;5.82;1.42;;;;;;;;;;5009818;28;20014;-67
2022/07/10 03:40:00;;;;;;;7.97;1.40;;;;;;;;;;5009988;28;20010;-66
2022/07/10 03:42:25;;;;;;;6.80;1.33;;;;;;;;;;5008110;28;20033;-67
2022/07/10 03:44:50;;;;;;;7.30;1.17;;;;;;;;;;5010526;28;20289;-66
2022/07/10 03:47:16;;;;;;;5.30;1.50;;;;;;;;;;4993502;28;20269;-66
2022/07/10 03:49:41;;;;;;;7.97;1.63;;;;;;;;;;5009046;28;20271;-67
2022/07/10 03:52:07;;;;;;;4.82;1.17;;;;;;;;;;5007982;28;20284;-68
2022/07/10 03:54:32;;;;;;;11.18;2.50;;;;;;;;;;5008483;28;20018;-68
2022/07/10 03:59:41;;;;;;;7.78;1.27;;;;;;;;;;5008248;28;20291;-67
2022/07/10 04:02:07;;;;;;;11.65;1.50;;;;;;;;;;5008164;28;20470;-67
2022/07/10 04:04:32;;;;;;;7.85;1.80;;;;;;;;;;5009568;28;20029;-67
2022/07/10 04:06:57;;;;;;;6.55;3.00;;;;;;;;;;5009034;28;20014;-67
2022/07/10 04:09:22;;;;;;;8.90;1.50;;;;;;;;;;5008362;28;20026;-67
2022/07/10 04:11:48;;;;;;;7.00;1.40;;;;;;;;;;5007090;28;20680;-66
2022/07/10 04:14:13;;;;;;;8.07;1.40;;;;;;;;;;5008903;28;20383;-67
2022/07/10 04:16:38;;;;;;;4.60;1.23;;;;;;;;;;5008309;28;20028;-67
2022/07/10 04:19:03;;;;;;;10.87;1.87;;;;;;;;;;5009077;28;20281;-67
2022/07/10 04:21:28;;;;;;;8.93;1.57;;;;;;;;;;5006292;28;20292;-67
2022/07/10 04:23:54;;;;;;;10.73;2.50;;;;;;;;;;5009789;28;20276;-67
2022/07/10 04:26:19;;;;;;;13.23;1.67;;;;;;;;;;5006077;28;20273;-67
2022/07/10 04:28:44;;;;;;;7.00;1.50;;;;;;;;;;5009651;28;20014;-67
2022/07/10 04:31:09;;;;;;;14.02;2.00;;;;;;;;;;5007789;28;20279;-67
2022/07/10 04:33:34;;;;;;;9.23;1.57;;;;;;;;;;5008897;28;20033;-66
2022/07/10 04:35:59;;;;;;;18.33;1.67;;;;;;;;;;5006821;28;20741;-67
2022/07/10 04:38:25;;;;;;;11.70;1.60;;;;;;;;;;5008683;28;20265;-67
2022/07/10 04:40:50;;;;;;;8.70;1.60;;;;;;;;;;5010485;28;20319;-67
2022/07/10 04:43:15;;;;;;;9.73;1.63;;;;;;;;;;5012157;28;20053;-67
2022/07/10 04:45:40;;;;;;;13.27;1.83;;;;;;;;;;5011980;28;20299;-67
2022/07/10 04:48:05;;;;;;;10.20;1.40;;;;;;;;;;5012852;28;20789;-67
2022/07/10 04:50:31;;;;;;;4.40;1.63;;;;;;;;;;5009902;28;20363;-67
2022/07/10 04:52:56;;;;;;;7.80;1.63;;;;;;;;;;5011043;28;20505;-67
2022/07/10 04:55:22;;;;;;;6.07;1.60;;;;;;;;;;5011273;28;20376;-67
2022/07/10 04:57:47;;;;;;;12.57;1.95;;;;;;;;;;5011258;28;20053;-67
2022/07/10 05:00:12;;;;;;;9.77;1.30;;;;;;;;;;4990470;28;20057;-67
2022/07/10 05:02:37;;;;;;;10.00;1.75;;;;;;;;;;5011351;28;20276;-67
2022/07/10 05:05:03;;;;;;;12.27;1.80;;;;;;;;;;5011468;28;20103;-67
2022/07/10 05:07:28;;;;;;;19.23;2.03;;;;;;;;;;5011140;28;20265;-67
2022/07/10 05:09:53;;;;;;;10.73;2.47;;;;;;;;;;5011470;28;20021;-67
2022/07/10 05:12:18;;;;;;;6.57;1.77;;;;;;;;;;5011108;28;20854;-66
2022/07/10 05:14:43;;;;;;;9.00;1.63;;;;;;;;;;5011158;28;20276;-67
2022/07/10 05:17:09;;;;;;;10.03;1.60;;;;;;;;;;5011446;28;20036;-67
2022/07/10 05:19:34;;;;;;;9.50;1.83;;;;;;;;;;5012334;28;20265;-66
2022/07/10 05:21:59;;;;;;;13.50;2.10;;;;;;;;;;5010105;28;20388;-68
2022/07/10 05:24:24;;;;;;;15.37;2.90;;;;;;;;;;5011147;28;20276;-66
2022/07/10 05:26:49;;;;;;;9.50;2.37;;;;;;;;;;5011511;28;20358;-67
2022/07/10 05:29:14;;;;;;;12.40;2.13;;;;;;;;;;5010906;28;20284;-66
2022/07/10 05:31:40;;;;;;;13.33;1.60;;;;;;;;;;5010190;28;20319;-67
2022/07/10 05:34:05;;;;;;;6.82;1.88;;;;;;;;;;5011525;28;20269;-67
2022/07/10 05:36:31;;;;;;;15.00;2.67;;;;;;;;;;5009277;28;20486;-67
2022/07/10 05:38:56;;;;;;;8.32;2.03;;;;;;;;;;5011255;28;20017;-67
2022/07/10 05:41:21;;;;;;;7.70;1.97;;;;;;;;;;5010387;28;20029;-67
2022/07/10 05:43:46;;;;;;;12.83;2.23;;;;;;;;;;5007760;28;20780;-67
2022/07/10 05:46:11;;;;;;;10.27;2.13;;;;;;;;;;5009244;28;20288;-66
2022/07/10 05:48:38;;;;;;;11.88;2.33;;;;;;;;;;5009021;28;20318;-67
2022/07/10 05:51:03;;;;;;;5.93;1.80;;;;;;;;;;5007661;28;20029;-67
2022/07/10 05:53:28;;;;;;;9.15;1.85;;;;;;;;;;5008594;28;20638;-66
2022/07/10 05:55:53;;;;;;;10.23;2.60;;;;;;;;;;5008677;28;20053;-67
2022/07/10 05:58:19;;;;;;;17.03;2.23;;;;;;;;;;5007790;28;20284;-67
2022/07/10 06:00:45;;;;;;;8.73;1.85;;;;;;;;;;5008991;28;20268;-67
2022/07/10 06:03:11;;;;;;;10.88;2.00;;;;;;;;;;5008274;28;20026;-66
2022/07/10 06:05:36;;;;;;;13.75;1.75;;;;;;;;;;5008778;28;20072;-66
2022/07/10 06:08:02;;;;;;;6.75;1.75;;;;;;;;;;5008741;28;20449;-67
2022/07/10 06:10:27;;;;;;;9.50;1.95;;;;;;;;;;5006962;28;20076;-67
2022/07/10 06:12:52;;;;;;;9.40;1.77;;;;;;;;;;5006321;28;20382;-68
2022/07/10 06:15:18;;;;;;;12.77;1.47;;;;;;;;;;5007176;28;20367;-67
2022/07/10 06:17:43;;;;;;;6.63;1.98;;;;;;;;;;5007597;28;20276;-67
2022/07/10 06:20:08;;;;;;;10.90;2.03;;;;;;;;;;5008888;28;20037;-67
2022/07/10 06:22:33;;;;;;;7.97;1.10;;;;;;;;;;5008719;28;20049;-67
2022/07/10 06:25:06;;;;;;;9.07;2.85;;;;;;;;;;5008223;28;20030;-67
2022/07/10 06:27:31;;;;;;;15.27;2.05;;;;;;;;;;5009358;28;20022;-67
2022/07/10 06:29:57;;;;;;;7.82;2.10;;;;;;;;;;5010956;28;20018;-67
2022/07/10 06:32:22;;;;;;;9.98;2.03;;;;;;;;;;5011243;28;20065;-68
2022/07/10 06:34:47;;;;;;;9.45;1.67;;;;;;;;;;5010239;28;20022;-67
2022/07/10 06:37:13;;;;;;;10.25;2.45;;;;;;;;;;5010882;28;20053;-67
2022/07/10 06:39:38;;;;;;;6.47;1.70;;;;;;;;;;5010108;28;20048;-67
2022/07/10 06:42:03;;;;;;;8.37;1.87;;;;;;;;;;5007783;28;20761;-67
2022/07/10 06:44:29;;;;;;;6.20;1.90;;;;;;;;;;5008858;28;20287;-67
2022/07/10 06:49:39;;;;;;;11.05;2.00;;;;;;;;;;5006776;28;20040;-67
2022/07/10 06:52:04;;;;;;;12.50;2.00;;;;;;;;;;5009241;28;20378;-69
2022/07/10 06:54:29;;;;;;;9.77;2.13;;;;;;;;;;5009535;28;20018;-67
2022/07/10 06:56:55;;;;;;;9.37;2.20;;;;;;;;;;5007213;28;20026;-66
2022/07/10 06:59:20;;;;;;;10.68;2.10;;;;;;;;;;5010802;28;20353;-68
2022/07/10 07:01:45;;;;;;;9.60;2.60;;;;;;;;;;5008743;28;20033;-67
2022/07/10 07:04:10;;;;;;;8.27;1.70;;;;;;;;;;5007539;28;20738;-67
2022/07/10 07:06:36;;;;;;;12.40;1.92;;;;;;;;;;5008130;28;20280;-67
2022/07/10 07:09:01;;;;;;;9.43;1.52;;;;;;;;;;5008521;28;20013;-67
2022/07/10 07:11:26;;;;;;;5.33;1.53;;;;;;;;;;5009373;28;20022;-67
2022/07/10 07:13:51;;;;;;;8.87;2.30;;;;;;;;;;5008072;28;20312;-67
2022/07/10 07:16:19;;;;;;;9.25;1.98;;;;;;;;;;5006756;28;20034;-67
2022/07/10 07:18:51;;;;;;;15.27;2.10;;;;;;;;;;5005347;28;20371;-67
2022/07/10 07:24:00;;;;;;;7.85;1.55;;;;;;;;;;5006250;28;20041;-67
2022/07/10 07:26:25;;;;;;;9.20;1.70;;;;;;;;;;5008906;28;20095;-67
2022/07/10 07:28:50;;;;;;;10.53;1.63;;;;;;;;;;5007637;28;20697;-66
2022/07/10 07:31:17;;;;;;;11.10;1.57;;;;;;;;;;5010659;28;20285;-67
2022/07/10 07:33:43;;;;;;;8.45;2.00;;;;;;;;;;5008745;28;20338;-67
2022/07/10 07:36:08;;;;;;;10.18;1.90;;;;;;;;;;5009460;28;20018;-66
2022/07/10 07:38:33;;;;;;;6.37;2.17;;;;;;;;;;5009514;28;20014;-67
2022/07/10 07:40:59;;;;;;;6.60;1.50;;;;;;;;;;5010953;28;20010;-68
2022/07/10 07:43:24;;;;;;;13.43;1.80;;;;;;;;;;5006509;28;20080;-67
2022/07/10 07:45:49;;;;;;;11.00;1.75;;;;;;;;;;5008196;28;20496;-66
2022/07/10 07:48:14;;;;;;;9.52;2.13;;;;;;;;;;5009390;28;20662;-67
2022/07/10 07:50:40;;;;;;;7.53;1.73;;;;;;;;;;5008122;28;20386;-67
2022/07/10 07:53:06;;;;;;;11.02;1.60;;;;;;;;;;5007536;28;20286;-67
2022/07/10 07:55:32;;;;;;;8.75;1.42;;;;;;;;;;5006456;28;20029;-67
2022/07/10 07:57:58;;;;;;;5.57;1.42;;;;;;;;;;5021995;22;20045;-71
2022/07/10 08:00:24;;;;;;;6.30;1.97;;;;;;;;;;5007019;28;20030;-71
2022/07/10 08:02:50;;;;;;;12.18;1.52;;;;;;;;;;5006303;28;20283;-70
2022/07/10 08:05:15;;;;;;;10.35;1.92;;;;;;;;;;5006100;28;20501;-71
2022/07/10 08:07:42;;;;;;;8.20;1.63;;;;;;;;;;5007243;28;20112;-71
2022/07/10 08:10:08;;;;;;;10.65;2.00;;;;;;;;;;5005827;28;20061;-71
2022/07/10 08:12:33;;;;;;;12.57;2.08;;;;;;;;;;5005312;28;20026;-71
2022/07/10 08:14:59;;;;;;;7.32;1.85;;;;;;;;;;5008627;28;20022;-71
2022/07/10 08:17:24;;;;;;;7.65;1.80;;;;;;;;;;5009880;28;20076;-71
2022/07/10 08:19:50;;;;;;;9.52;1.45;;;;;;;;;;5008911;28;20022;-70
2022/07/10 08:22:15;;;;;;;6.40;1.57;;;;;;;;;;5012035;28;20034;-68
2022/07/10 08:24:40;;;;;;;7.18;1.80;;;;;;;;;;5010780;28;20287;-69
2022/07/10 08:27:07;;;;;;;10.27;1.87;;;;;;;;;;5013518;28;20025;-69
2022/07/10 08:29:32;;;;;;;8.68;2.03;;;;;;;;;;5011618;28;20429;-69
2022/07/10 08:31:57;;;;;;;8.67;1.60;;;;;;;;;;5010756;28;20026;-69
2022/07/10 08:34:23;;;;;;;19.33;2.70;;;;;;;;;;5012289;28;20304;-69
2022/07/10 08:36:48;;;;;;;8.57;2.30;;;;;;;;;;5013383;28;20264;-69
2022/07/10 08:39:15;;;;;;;8.50;2.50;;;;;;;;;;5009429;28;20756;-69
2022/07/10 08:41:41;;;;;;;10.10;2.75;;;;;;;;;;5012518;28;20479;-69
2022/07/10 08:44:06;;;;;;;11.18;2.55;;;;;;;;;;5010340;28;20475;-69
2022/07/10 08:46:31;;;;;;;7.27;3.10;;;;;;;;;;5013477;28;20076;-69
2022/07/10 08:48:58;;;;;;;11.18;2.88;;;;;;;;;;5011988;28;20030;-69
2022/07/10 08:51:25;;;;;;;8.13;2.50;;;;;;;;;;5009920;28;20381;-69
2022/07/10 08:53:51;;;;;;;15.63;2.60;;;;;;;;;;5008080;28;20018;-69
2022/07/10 08:56:16;;;;;;;8.75;2.47;;;;;;;;;;5005845;28;20025;-70
2022/07/10 08:58:42;;;;;;;9.93;2.83;;;;;;;;;;5009241;28;20076;-69
2022/07/10 09:01:07;;;;;;;15.68;2.80;;;;;;;;;;5007290;28;20353;-69
2022/07/10 09:03:32;;;;;;;13.98;2.92;;;;;;;;;;5007835;28;20018;-70
2022/07/10 09:05:58;;;;;;;12.07;3.17;;;;;;;;;;5008463;28;20029;-67
2022/07/10 09:08:24;;;;;;;14.00;2.60;;;;;;;;;;5010299;28;20028;-69
2022/07/10 09:10:50;;;;;;;11.05;3.00;;;;;;;;;;5009616;28;20312;-70
2022/07/10 09:13:15;;;;;;;8.77;2.42;;;;;;;;;;5009056;28;20022;-70
2022/07/10 09:15:47;;;;;;;10.73;2.67;;;;;;;;;;5009262;28;20053;-69
2022/07/10 09:18:12;;;;;;;11.38;2.47;;;;;;;;;;5010313;28;20022;-70
2022/07/10 09:20:38;;;;;;;7.00;2.60;;;;;;;;;;5008891;28;20642;-70
2022/07/10 09:23:22;;;;;;;9.80;3.25;;;;;;;;;;5009066;28;20269;-69
2022/07/10 09:25:48;;;;;;;3.40;1.95;;;;;;;;;;5009067;28;20114;-67
2022/07/10 09:28:16;;;;;;;7.13;2.05;;;;;;;;;;5009718;28;20029;-68
2022/07/10 09:30:41;;;;;;;8.43;2.38;;;;;;;;;;5009392;28;20033;-69
2022/07/10 09:33:25;;;;;;;6.68;2.85;;;;;;;;;;5007824;28;20037;-68
2022/07/10 09:36:07;;;;;;;7.22;2.78;;;;;;;;;;5009393;28;20022;-69
2022/07/10 09:38:44;;;;;;;8.63;3.58;;;;;;;;;;5008001;28;20037;-69
2022/07/10 09:41:14;;;;;;;13.30;3.47;;;;;;;;;;5009119;28;20017;-69
2022/07/10 09:43:46;;;;;;;11.60;4.15;;;;;;;;;;5010479;28;20050;-69
2022/07/10 09:46:11;;;;;;;7.47;3.78;;;;;;;;;;5008408;28;20038;-69
2022/07/10 09:48:37;;;;;;;12.60;4.30;;;;;;;;;;5009947;28;20041;-68
2022/07/10 09:51:02;;;;;;;10.30;5.10;;;;;;;;;;5008487;28;20277;-69
2022/07/10 09:53:27;;;;;;;8.35;3.95;;;;;;;;;;5010130;28;20625;-69
2022/07/10 09:55:54;;;;;;;14.52;4.95;;;;;;;;;;5008070;28;20017;-68
2022/07/10 09:58:20;;;;;;;8.68;4.32;;;;;;;;;;4995152;28;20030;-68
2022/07/10 10:00:45;;;;;;;13.70;5.53;;;;;;;;;;5009505;28;20022;-69
2022/07/10 10:03:14;;;;;;;12.63;5.40;;;;;;;;;;5009350;28;20033;-69
2022/07/10 10:05:52;;;;;;;8.70;4.45;;;;;;;;;;5007262;28;20065;-69
2022/07/10 10:08:30;;;;;;;15.77;5.30;;;;;;;;;;5007971;28;20448;-68
2022/07/10 10:10:57;;;;;;;13.38;5.05;;;;;;;;;;5009144;28;20026;-69
2022/07/10 10:13:23;;;;;;;10.75;5.10;;;;;;;;;;5007394;28;20029;-68
2022/07/10 10:15:49;;;;;;;12.60;5.15;;;;;;;;;;5008025;28;20025;-69
2022/07/10 10:18:17;;;;;;;12.25;4.32;;;;;;;;;;5007188;28;20048;-68
2022/07/10 10:20:43;;;;;;;11.55;3.97;;;;;;;;;;5006166;28;20398;-69
2022/07/10 10:23:09;;;;;;;5.07;3.13;;;;;;;;;;4995027;28;20014;-69
2022/07/10 10:25:35;;;;;;;9.02;3.60;;;;;;;;;;5006551;28;20463;-69
2022/07/10 10:28:01;;;;;;;11.27;4.28;;;;;;;;;;5007270;28;20036;-68
2022/07/10 10:30:26;;;;;;;12.10;4.28;;;;;;;;;;5004455;28;20022;-69
2022/07/10 10:32:52;;;;;;;14.77;5.82;;;;;;;;;;5004667;28;20064;-69
2022/07/10 10:35:36;;;;;;;12.95;5.05;;;;;;;;;;5005859;28;20057;-68
2022/07/10 10:38:01;;;;;;;9.48;5.22;;;;;;;;;;5003897;28;20359;-68
2022/07/10 10:40:31;;;;;;;11.07;5.03;;;;;;;;;;5005101;28;20053;-68
2022/07/10 10:42:58;;;;;;;6.75;4.60;;;;;;;;;;5002895;28;20283;-68
2022/07/10 10:45:29;;;;;;;11.02;5.03;;;;;;;;;;5006192;28;20297;-68
2022/07/10 10:47:57;;;;;;;10.07;3.63;;;;;;;;;;5005547;28;20062;-68
2022/07/10 10:50:44;;;;;;;19.15;9.18;;;;;;;;;;5002046;28;20028;-68
2022/07/10 10:53:41;;;;;;;13.35;4.57;;;;;;;;;;5005328;28;20030;-69
2022/07/10 10:56:09;;;;;;;10.45;4.13;;;;;;;;;;4957124;28;20082;-68
2022/07/10 10:58:39;;;;;;;8.93;3.58;;;;;;;;;;5009896;28;20030;-68
2022/07/10 11:01:05;;;;;;;13.45;3.50;;;;;;;;;;5007602;28;20022;-68
2022/07/10 11:03:30;;;;;;;9.05;3.25;;;;;;;;;;5009556;28;20422;-69
2022/07/10 11:05:55;;;;;;;9.43;3.72;;;;;;;;;;5006236;28;20028;-68
2022/07/10 11:08:50;;;;;;;11.02;2.60;;;;;;;;;;5005720;28;20072;-68
2022/07/10 11:11:30;;;;;;;11.15;4.07;;;;;;;;;;4960027;28;20038;-69
2022/07/10 11:13:59;;;;;;;13.35;2.50;;;;;;;;;;5005258;28;20389;-68
2022/07/10 11:16:24;;;;;;;10.70;3.60;;;;;;;;;;5009325;28;20018;-68
2022/07/10 11:18:53;;;;;;;8.35;3.22;;;;;;;;;;5009144;28;20128;-68
2022/07/10 11:21:22;;;;;;;10.32;3.55;;;;;;;;;;5009860;28;20020;-69
2022/07/10 11:24:06;;;;;;;15.95;4.43;;;;;;;;;;5007273;28;20108;-68
2022/07/10 11:26:46;;;;;;;11.75;3.55;;;;;;;;;;5008934;28;20026;-68
2022/07/10 11:29:11;;;;;;;14.18;4.45;;;;;;;;;;5007871;28;20069;-69
2022/07/10 11:31:46;;;;;;;6.90;3.43;;;;;;;;;;5010049;28;20056;-69
2022/07/10 11:34:11;;;;;;;8.10;3.55;;;;;;;;;;5008416;28;20645;-68
2022/07/10 11:36:38;;;;;;;10.10;3.83;;;;;;;;;;5008643;28;20022;-68
2022/07/10 11:39:05;;;;;;;15.05;3.58;;;;;;;;;;5003583;28;20060;-69
2022/07/10 11:41:30;;;;;;;8.32;3.22;;;;;;;;;;5009543;28;20485;-69
2022/07/10 11:43:55;;;;;;;5.47;3.00;;;;;;;;;;5006593;28;20033;-69
2022/07/10 11:46:23;;;;;;;6.28;3.20;;;;;;;;;;4991455;28;20085;-68
2022/07/10 11:48:56;;;;;;;9.43;3.50;;;;;;;;;;5007773;28;20033;-69
2022/07/10 11:51:28;;;;;;;15.65;2.85;;;;;;;;;;5004567;28;20014;-68
2022/07/10 11:53:55;;;;;;;6.25;2.42;;;;;;;;;;5002735;28;20466;-68
2022/07/10 11:56:21;;;;;;;6.28;1.75;;;;;;;;;;5005968;28;20056;-68
2022/07/10 11:58:55;;;;;;;3.65;2.13;;;;;;;;;;5006664;28;20160;-68
2022/07/10 12:01:21;;;;;;;6.70;1.98;;;;;;;;;;5004692;28;20018;-69
2022/07/10 12:03:55;;;;;;;4.45;1.50;;;;;;;;;;5006709;28;20501;-68
2022/07/10 12:06:20;;;;;;;3.90;1.25;;;;;;;;;;5007887;28;20033;-68
2022/07/10 12:08:46;;;;;;;6.77;1.30;;;;;;;;;;5006653;28;20018;-68
2022/07/10 12:11:15;;;;;;;2.78;1.13;;;;;;;;;;5008315;28;20611;-68
2022/07/10 12:13:40;;;;;;;1.63;0.80;;;;;;;;;;5007979;28;20029;-68
2022/07/10 12:16:05;;;;;;;4.80;1.00;;;;;;;;;;5009291;28;20026;-68
2022/07/10 12:18:33;;;;;;;7.47;1.45;;;;;;;;;;5008717;28;20280;-68
2022/07/10 12:20:59;;;;;;;2.75;1.77;;;;;;;;;;5006738;28;20382;-68
2022/07/10 12:23:24;;;;;;;2.40;1.90;;;;;;;;;;5007067;28;20022;-69
2022/07/10 12:25:50;;;;;;;6.32;2.60;;;;;;;;;;5006730;28;20425;-68
2022/07/10 12:28:15;;;;;;;6.50;2.78;;;;;;;;;;5008406;28;20537;-67
2022/07/10 12:30:49;;;;;;;5.30;2.20;;;;;;;;;;5007111;28;20512;-68
2022/07/10 12:33:18;;;;;;;8.18;2.40;;;;;;;;;;5006976;28;20037;-68
2022/07/10 12:35:49;;;;;;;4.35;1.75;;;;;;;;;;5007257;28;20018;-68
2022/07/10 12:38:19;;;;;;;5.00;1.77;;;;;;;;;;5008381;28;20018;-68
2022/07/10 12:40:44;;;;;;;7.07;2.63;;;;;;;;;;5007580;28;20018;-69
2022/07/10 12:43:11;;;;;;;6.20;2.25;;;;;;;;;;5007359;28;20489;-68
2022/07/10 12:45:36;;;;;;;5.82;2.20;;;;;;;;;;5008290;28;20363;-68
2022/07/10 12:48:04;;;;;;;6.00;1.98;;;;;;;;;;5003784;28;20538;-68
2022/07/10 12:50:29;;;;;;;3.83;1.65;;;;;;;;;;5007953;28;20063;-69
2022/07/10 12:53:14;;;;;;;3.70;2.13;;;;;;;;;;5005614;28;20032;-69
2022/07/10 12:55:41;;;;;;;2.92;1.48;;;;;;;;;;5003008;28;20395;-68
2022/07/10 12:58:08;;;;;;;8.88;3.10;;;;;;;;;;5007930;28;20022;-68
2022/07/10 13:00:34;;;;;;;4.50;2.20;;;;;;;;;;5007171;28;20014;-69
2022/07/10 13:03:00;;;;;;;6.97;2.33;;;;;;;;;;5010347;28;20569;-68
2022/07/10 13:05:29;;;;;;;3.30;1.63;;;;;;;;;;5008145;28;20399;-69
2022/07/10 13:08:15;;;;;;;7.40;2.17;;;;;;;;;;5009444;28;20497;-68
2022/07/10 13:10:41;;;;;;;4.15;2.00;;;;;;;;;;5006786;28;20050;-68
2022/07/10 13:13:06;;;;;;;10.30;2.47;;;;;;;;;;5008720;28;20758;-68
2022/07/10 13:15:34;;;;;;;15.98;3.88;;;;;;;;;;5005169;28;20101;-68
2022/07/10 13:17:59;;;;;;;6.35;2.50;;;;;;;;;;5011153;28;20017;-68
2022/07/10 13:20:24;;;;;;;4.50;2.05;;;;;;;;;;5011744;28;20538;-70
2022/07/10 13:22:50;;;;;;;6.53;2.23;;;;;;;;;;5011455;28;20638;-68
2022/07/10 13:25:15;;;;;;;4.93;1.57;;;;;;;;;;5010446;28;20360;-69
2022/07/10 13:27:41;;;;;;;11.27;2.22;;;;;;;;;;5010278;28;20282;-69
2022/07/10 13:30:07;;;;;;;3.90;1.95;;;;;;;;;;5006418;28;20025;-68
2022/07/10 13:32:33;;;;;;;4.78;1.98;;;;;;;;;;5009904;28;20434;-69
2022/07/10 13:34:58;;;;;;;8.57;1.92;;;;;;;;;;5007471;28;20473;-70
2022/07/10 13:37:24;;;;;;;7.10;1.90;;;;;;;;;;5011082;28;20072;-68
2022/07/10 13:39:49;;;;;;;6.50;2.65;;;;;;;;;;5010380;28;20319;-68
2022/07/10 13:42:14;;;;;;;9.52;1.98;;;;;;;;;;5009079;28;20080;-68
2022/07/10 13:44:40;;;;;;;4.03;1.93;;;;;;;;;;5008309;28;20023;-68
2022/07/10 13:47:05;;;;;;;14.32;2.72;;;;;;;;;;5009608;28;20741;-69
2022/07/10 13:49:30;;;;;;;5.43;2.78;;;;;;;;;;5011040;28;20030;-68
2022/07/10 13:51:55;;;;;;;3.55;1.92;;;;;;;;;;5010206;28;20056;-69
2022/07/10 13:54:21;;;;;;;6.47;2.03;;;;;;;;;;5010620;28;20030;-69
2022/07/10 13:56:46;;;;;;;10.80;2.37;;;;;;;;;;5008386;28;20319;-69
2022/07/10 13:59:19;;;;;;;5.37;2.40;;;;;;;;;;5046920;23;20311;-89
2022/07/10 14:01:44;;;;;;;10.65;2.35;;;;;;;;;;5024196;28;20260;-89
2022/07/10 14:04:09;;;;;;;16.70;3.00;;;;;;;;;;5017746;28;20025;-88
2022/07/10 14:06:38;;;;;;;6.43;2.20;;;;;;;;;;5031574;28;20029;-90
2022/07/10 14:09:03;;;;;;;14.10;3.97;;;;;;;;;;5022637;28;20029;-90
2022/07/10 14:11:32;;;;;;;6.97;2.33;;;;;;;;;;5022546;28;20493;-89
2022/07/10 14:14:01;;;;;;;6.15;2.40;;;;;;;;;;5028769;28;20485;-89
2022/07/10 14:16:29;;;;;;;4.22;2.28;;;;;;;;;;5018044;28;20028;-89
2022/07/10 14:19:03;;;;;;;9.65;3.05;;;;;;;;;;5020368;28;20662;-91
2022/07/10 14:21:29;;;;;;;9.57;2.92;;;;;;;;;;5008716;28;20033;-89
2022/07/10 14:23:56;;;;;;;6.95;2.40;;;;;;;;;;5011957;28;20020;-89
2022/07/10 14:26:38;;;;;;;10.77;2.58;;;;;;;;;;5012106;28;20495;-91
2022/07/10 14:29:03;;;;;;;8.07;2.53;;;;;;;;;;5017380;28;20511;-89
2022/07/10 14:31:29;;;;;;;6.75;2.38;;;;;;;;;;5030761;22;20129;-66
2022/07/10 14:33:54;;;;;;;8.40;2.30;;;;;;;;;;5006457;28;20026;-65
2022/07/10 14:36:19;;;;;;;9.43;2.30;;;;;;;;;;5008590;28;20026;-65
2022/07/10 14:38:45;;;;;;;5.18;2.15;;;;;;;;;;5007847;28;20060;-65
2022/07/10 14:41:10;;;;;;;10.80;1.87;;;;;;;;;;5008022;28;20310;-65
2022/07/10 14:43:36;;;;;;;5.10;2.78;;;;;;;;;;5009210;28;20052;-66